sensor_id;sensor_type;location;lat;lon;timestamp;temperature;humidity
11666;DHT22;5889;51.350;6.708;2024-01-30T00:00:04;9.10;99.90
11666;DHT22;5889;51.350;6.708;2024-01-30T00:02:32;9.00;99.90
11666;DHT22;5889;51.350;6.708;2024-01-30T00:05:00;9.10;99.90
11666;DHT22;5889;51.350;6.708;2024-01-30T00:07:29;9.00;99.90
11666;DHT22;5889;51.350;6.708;2024-01-30T00:09:56;9.00;99.90
11666;DHT22;5889;51.350;6.708;2024-01-30T00:12:22;9.00;99.90
11666;DHT22;5889;51.350;6.708;2024-01-30T00:14:49;9.00;99.90
11666;DHT22;5889;51.350;6.708;2024-01-30T00:17:16;9.00;99.90
11666;DHT22;5889;51.350;6.708;2024-01-30T00:19:44;9.00;99.90
11666;DHT22;5889;51.350;6.708;2024-01-30T00:22:13;9.00;99.90
11666;DHT22;5889;51.350;6.708;2024-01-30T00:24:40;9.00;99.90
11666;DHT22;5889;51.350;6.708;2024-01-30T00:27:07;9.00;99.90
11666;DHT22;5889;51.350;6.708;2024-01-30T00:29:34;9.00;99.90
11666;DHT22;5889;51.350;6.708;2024-01-30T00:32:01;9.00;99.90
11666;DHT22;5889;51.350;6.708;2024-01-30T00:34:28;9.00;99.90
11666;DHT22;5889;51.350;6.708;2024-01-30T00:36:55;9.00;99.90
11666;DHT22;5889;51.350;6.708;2024-01-30T00:39:23;9.00;99.90
11666;DHT22;5889;51.350;6.708;2024-01-30T00:41:50;8.90;99.90
11666;DHT22;5889;51.350;6.708;2024-01-30T00:44:17;8.90;99.90
11666;DHT22;5889;51.350;6.708;2024-01-30T00:46:43;8.90;99.90
11666;DHT22;5889;51.350;6.708;2024-01-30T00:49:10;8.90;99.90
11666;DHT22;5889;51.350;6.708;2024-01-30T00:51:37;8.90;99.90
11666;DHT22;5889;51.350;6.708;2024-01-30T00:54:04;8.90;99.90
11666;DHT22;5889;51.350;6.708;2024-01-30T00:56:33;8.90;99.90
11666;DHT22;5889;51.350;6.708;2024-01-30T00:59:00;8.80;99.90
11666;DHT22;5889;51.350;6.708;2024-01-30T01:01:27;8.90;99.90
11666;DHT22;5889;51.350;6.708;2024-01-30T01:03:54;8.80;99.90
11666;DHT22;5889;51.350;6.708;2024-01-30T01:06:21;8.80;99.90
11666;DHT22;5889;51.350;6.708;2024-01-30T01:08:48;8.80;99.90
11666;DHT22;5889;51.350;6.708;2024-01-30T01:11:15;8.80;99.90
11666;DHT22;5889;51.350;6.708;2024-01-30T01:13:43;8.80;99.90
11666;DHT22;5889;51.350;6.708;2024-01-30T01:16:10;8.80;99.90
11666;DHT22;5889;51.350;6.708;2024-01-30T01:18:37;8.80;99.90
11666;DHT22;5889;51.350;6.708;2024-01-30T01:21:04;8.70;99.90
11666;DHT22;5889;51.350;6.708;2024-01-30T01:23:31;8.70;99.90
11666;DHT22;5889;51.350;6.708;2024-01-30T01:25:58;8.70;99.90
11666;DHT22;5889;51.350;6.708;2024-01-30T01:28:26;8.70;99.90
11666;DHT22;5889;51.350;6.708;2024-01-30T01:30:55;8.70;99.90
11666;DHT22;5889;51.350;6.708;2024-01-30T01:33:24;8.70;99.90
11666;DHT22;5889;51.350;6.708;2024-01-30T01:35:51;8.70;99.90
11666;DHT22;5889;51.350;6.708;2024-01-30T01:38:19;8.70;99.90
11666;DHT22;5889;51.350;6.708;2024-01-30T01:40:45;8.70;99.90
11666;DHT22;5889;51.350;6.708;2024-01-30T01:43:12;8.60;99.90
11666;DHT22;5889;51.350;6.708;2024-01-30T01:45:39;8.60;99.90
11666;DHT22;5889;51.350;6.708;2024-01-30T01:48:08;8.70;99.90
11666;DHT22;5889;51.350;6.708;2024-01-30T01:50:36;8.60;99.90
11666;DHT22;5889;51.350;6.708;2024-01-30T01:53:03;8.60;99.90
11666;DHT22;5889;51.350;6.708;2024-01-30T01:55:31;8.60;99.90
11666;DHT22;5889;51.350;6.708;2024-01-30T01:57:59;8.60;99.90
11666;DHT22;5889;51.350;6.708;2024-01-30T02:00:26;8.60;99.90
11666;DHT22;5889;51.350;6.708;2024-01-30T02:02:54;8.60;99.90
11666;DHT22;5889;51.350;6.708;2024-01-30T02:05:22;8.60;99.90
11666;DHT22;5889;51.350;6.708;2024-01-30T02:07:50;8.60;99.90
11666;DHT22;5889;51.350;6.708;2024-01-30T02:10:17;8.60;99.90
11666;DHT22;5889;51.350;6.708;2024-01-30T02:12:44;8.60;99.90
11666;DHT22;5889;51.350;6.708;2024-01-30T02:15:13;8.50;99.90
11666;DHT22;5889;51.350;6.708;2024-01-30T02:17:40;8.60;99.90
11666;DHT22;5889;51.350;6.708;2024-01-30T02:20:08;8.50;99.90
11666;DHT22;5889;51.350;6.708;2024-01-30T02:22:37;8.50;99.90
11666;DHT22;5889;51.350;6.708;2024-01-30T02:25:05;8.50;99.90
11666;DHT22;5889;51.350;6.708;2024-01-30T02:27:32;8.50;99.90
11666;DHT22;5889;51.350;6.708;2024-01-30T02:29:59;8.50;99.90
11666;DHT22;5889;51.350;6.708;2024-01-30T02:32:26;8.50;99.90
11666;DHT22;5889;51.350;6.708;2024-01-30T02:34:53;8.50;99.90
11666;DHT22;5889;51.350;6.708;2024-01-30T02:37:20;8.50;99.90
11666;DHT22;5889;51.350;6.708;2024-01-30T02:39:48;8.50;99.90
11666;DHT22;5889;51.350;6.708;2024-01-30T02:42:15;8.50;99.90
11666;DHT22;5889;51.350;6.708;2024-01-30T02:44:42;8.50;99.90
11666;DHT22;5889;51.350;6.708;2024-01-30T02:47:09;8.50;99.90
11666;DHT22;5889;51.350;6.708;2024-01-30T02:49:35;8.50;99.90
11666;DHT22;5889;51.350;6.708;2024-01-30T02:52:03;8.50;99.90
11666;DHT22;5889;51.350;6.708;2024-01-30T02:54:30;8.50;99.90
11666;DHT22;5889;51.350;6.708;2024-01-30T02:56:58;8.60;99.90
11666;DHT22;5889;51.350;6.708;2024-01-30T02:59:25;8.50;99.90
11666;DHT22;5889;51.350;6.708;2024-01-30T03:01:52;8.50;99.90
11666;DHT22;5889;51.350;6.708;2024-01-30T03:04:19;8.60;99.90
11666;DHT22;5889;51.350;6.708;2024-01-30T03:06:46;8.60;99.90
11666;DHT22;5889;51.350;6.708;2024-01-30T03:09:13;8.60;99.90
11666;DHT22;5889;51.350;6.708;2024-01-30T03:11:40;8.60;99.90
11666;DHT22;5889;51.350;6.708;2024-01-30T03:14:08;8.50;99.90
11666;DHT22;5889;51.350;6.708;2024-01-30T03:16:36;8.60;99.90
11666;DHT22;5889;51.350;6.708;2024-01-30T03:19:04;8.60;99.90
11666;DHT22;5889;51.350;6.708;2024-01-30T03:21:31;8.50;99.90
11666;DHT22;5889;51.350;6.708;2024-01-30T03:23:58;8.60;99.90
11666;DHT22;5889;51.350;6.708;2024-01-30T03:26:25;8.60;99.90
11666;DHT22;5889;51.350;6.708;2024-01-30T03:28:52;8.50;99.90
11666;DHT22;5889;51.350;6.708;2024-01-30T03:31:20;8.60;99.90
11666;DHT22;5889;51.350;6.708;2024-01-30T03:33:47;8.60;99.90
11666;DHT22;5889;51.350;6.708;2024-01-30T03:36:15;8.50;99.90
11666;DHT22;5889;51.350;6.708;2024-01-30T03:38:42;8.50;99.90
11666;DHT22;5889;51.350;6.708;2024-01-30T03:41:09;8.60;99.90
11666;DHT22;5889;51.350;6.708;2024-01-30T03:43:36;8.60;99.90
11666;DHT22;5889;51.350;6.708;2024-01-30T03:46:03;8.50;99.90
11666;DHT22;5889;51.350;6.708;2024-01-30T03:48:32;8.50;99.90
11666;DHT22;5889;51.350;6.708;2024-01-30T03:50:59;8.50;99.90
11666;DHT22;5889;51.350;6.708;2024-01-30T03:53:26;8.50;99.90
11666;DHT22;5889;51.350;6.708;2024-01-30T03:55:52;8.50;99.90
11666;DHT22;5889;51.350;6.708;2024-01-30T03:58:19;8.50;99.90
11666;DHT22;5889;51.350;6.708;2024-01-30T04:00:46;8.50;99.90
11666;DHT22;5889;51.350;6.708;2024-01-30T04:03:14;8.50;99.90
11666;DHT22;5889;51.350;6.708;2024-01-30T04:05:43;8.40;99.90
11666;DHT22;5889;51.350;6.708;2024-01-30T04:08:10;8.40;99.90
11666;DHT22;5889;51.350;6.708;2024-01-30T04:10:37;8.40;99.90
11666;DHT22;5889;51.350;6.708;2024-01-30T04:13:04;8.40;99.90
11666;DHT22;5889;51.350;6.708;2024-01-30T04:15:31;8.40;99.90
11666;DHT22;5889;51.350;6.708;2024-01-30T04:17:58;8.40;99.90
11666;DHT22;5889;51.350;6.708;2024-01-30T04:20:25;8.40;99.90
11666;DHT22;5889;51.350;6.708;2024-01-30T04:22:53;8.40;99.90
11666;DHT22;5889;51.350;6.708;2024-01-30T04:25:20;8.40;99.90
11666;DHT22;5889;51.350;6.708;2024-01-30T04:27:47;8.40;99.90
11666;DHT22;5889;51.350;6.708;2024-01-30T04:30:15;8.40;99.90
11666;DHT22;5889;51.350;6.708;2024-01-30T04:32:42;8.40;99.90
11666;DHT22;5889;51.350;6.708;2024-01-30T04:35:09;8.40;99.90
11666;DHT22;5889;51.350;6.708;2024-01-30T04:37:36;8.40;99.90
11666;DHT22;5889;51.350;6.708;2024-01-30T04:40:06;8.40;99.90
11666;DHT22;5889;51.350;6.708;2024-01-30T04:42:33;8.40;99.90
11666;DHT22;5889;51.350;6.708;2024-01-30T04:45:00;8.40;99.90
11666;DHT22;5889;51.350;6.708;2024-01-30T04:47:27;8.40;99.90
11666;DHT22;5889;51.350;6.708;2024-01-30T04:49:55;8.40;99.90
11666;DHT22;5889;51.350;6.708;2024-01-30T04:52:22;8.30;99.90
11666;DHT22;5889;51.350;6.708;2024-01-30T04:54:49;8.40;99.90
11666;DHT22;5889;51.350;6.708;2024-01-30T04:57:17;8.40;99.90
11666;DHT22;5889;51.350;6.708;2024-01-30T04:59:44;8.40;99.90
11666;DHT22;5889;51.350;6.708;2024-01-30T05:02:11;8.30;99.90
11666;DHT22;5889;51.350;6.708;2024-01-30T05:04:38;8.40;99.90
11666;DHT22;5889;51.350;6.708;2024-01-30T05:07:04;8.40;99.90
11666;DHT22;5889;51.350;6.708;2024-01-30T05:09:31;8.40;99.90
11666;DHT22;5889;51.350;6.708;2024-01-30T05:11:58;8.40;99.90
11666;DHT22;5889;51.350;6.708;2024-01-30T05:14:26;8.30;99.90
11666;DHT22;5889;51.350;6.708;2024-01-30T05:16:53;8.30;99.90
11666;DHT22;5889;51.350;6.708;2024-01-30T05:19:20;8.30;99.90
11666;DHT22;5889;51.350;6.708;2024-01-30T05:21:49;8.40;99.90
11666;DHT22;5889;51.350;6.708;2024-01-30T05:24:15;8.30;99.90
11666;DHT22;5889;51.350;6.708;2024-01-30T05:26:42;8.30;99.90
11666;DHT22;5889;51.350;6.708;2024-01-30T05:29:09;8.30;99.90
11666;DHT22;5889;51.350;6.708;2024-01-30T05:31:38;8.20;99.90
11666;DHT22;5889;51.350;6.708;2024-01-30T05:34:04;8.30;99.90
11666;DHT22;5889;51.350;6.708;2024-01-30T05:36:32;8.20;99.90
11666;DHT22;5889;51.350;6.708;2024-01-30T05:38:59;8.30;99.90
11666;DHT22;5889;51.350;6.708;2024-01-30T05:41:26;8.20;99.90
11666;DHT22;5889;51.350;6.708;2024-01-30T05:43:53;8.20;99.90
11666;DHT22;5889;51.350;6.708;2024-01-30T05:46:20;8.20;99.90
11666;DHT22;5889;51.350;6.708;2024-01-30T05:48:48;8.20;99.90
11666;DHT22;5889;51.350;6.708;2024-01-30T05:51:15;8.20;99.90
11666;DHT22;5889;51.350;6.708;2024-01-30T05:53:42;8.20;99.90
11666;DHT22;5889;51.350;6.708;2024-01-30T05:56:09;8.20;99.90
11666;DHT22;5889;51.350;6.708;2024-01-30T05:58:35;8.10;99.90
11666;DHT22;5889;51.350;6.708;2024-01-30T06:01:07;8.10;99.90
11666;DHT22;5889;51.350;6.708;2024-01-30T06:03:35;8.10;99.90
11666;DHT22;5889;51.350;6.708;2024-01-30T06:06:03;8.10;99.90
11666;DHT22;5889;51.350;6.708;2024-01-30T06:08:30;8.10;99.90
11666;DHT22;5889;51.350;6.708;2024-01-30T06:10:57;8.10;99.90
11666;DHT22;5889;51.350;6.708;2024-01-30T06:13:24;8.10;99.90
11666;DHT22;5889;51.350;6.708;2024-01-30T06:15:51;8.20;99.90
11666;DHT22;5889;51.350;6.708;2024-01-30T06:18:17;8.20;99.90
11666;DHT22;5889;51.350;6.708;2024-01-30T06:20:44;8.20;99.90
11666;DHT22;5889;51.350;6.708;2024-01-30T06:23:13;8.20;99.90
11666;DHT22;5889;51.350;6.708;2024-01-30T06:25:40;8.20;99.90
11666;DHT22;5889;51.350;6.708;2024-01-30T06:28:07;8.30;99.90
11666;DHT22;5889;51.350;6.708;2024-01-30T06:30:34;8.20;99.90
11666;DHT22;5889;51.350;6.708;2024-01-30T06:33:01;8.30;99.90
11666;DHT22;5889;51.350;6.708;2024-01-30T06:35:28;8.30;99.90
11666;DHT22;5889;51.350;6.708;2024-01-30T06:37:55;8.30;99.90
11666;DHT22;5889;51.350;6.708;2024-01-30T06:40:26;8.30;99.90
11666;DHT22;5889;51.350;6.708;2024-01-30T06:42:53;8.30;99.90
11666;DHT22;5889;51.350;6.708;2024-01-30T06:45:21;8.40;99.90
11666;DHT22;5889;51.350;6.708;2024-01-30T06:47:48;8.40;99.90
11666;DHT22;5889;51.350;6.708;2024-01-30T06:50:15;8.40;99.90
11666;DHT22;5889;51.350;6.708;2024-01-30T06:52:41;8.40;99.90
11666;DHT22;5889;51.350;6.708;2024-01-30T06:55:09;8.40;99.90
11666;DHT22;5889;51.350;6.708;2024-01-30T06:57:37;8.40;99.90
11666;DHT22;5889;51.350;6.708;2024-01-30T07:00:05;8.40;99.90
11666;DHT22;5889;51.350;6.708;2024-01-30T07:02:32;8.50;99.90
11666;DHT22;5889;51.350;6.708;2024-01-30T07:04:59;8.40;99.90
11666;DHT22;5889;51.350;6.708;2024-01-30T07:07:26;8.50;99.90
11666;DHT22;5889;51.350;6.708;2024-01-30T07:09:54;8.40;99.90
11666;DHT22;5889;51.350;6.708;2024-01-30T07:12:22;8.40;99.90
11666;DHT22;5889;51.350;6.708;2024-01-30T07:14:51;8.40;99.90
11666;DHT22;5889;51.350;6.708;2024-01-30T07:17:19;8.40;99.90
11666;DHT22;5889;51.350;6.708;2024-01-30T07:19:46;8.40;99.90
11666;DHT22;5889;51.350;6.708;2024-01-30T07:22:13;8.40;99.90
11666;DHT22;5889;51.350;6.708;2024-01-30T07:24:42;8.40;99.90
11666;DHT22;5889;51.350;6.708;2024-01-30T07:27:12;8.40;99.90
11666;DHT22;5889;51.350;6.708;2024-01-30T07:29:40;8.40;99.90
11666;DHT22;5889;51.350;6.708;2024-01-30T07:32:08;8.50;99.90
11666;DHT22;5889;51.350;6.708;2024-01-30T07:34:35;8.40;99.90
11666;DHT22;5889;51.350;6.708;2024-01-30T07:37:02;8.50;99.90
11666;DHT22;5889;51.350;6.708;2024-01-30T07:39:29;8.50;99.90
11666;DHT22;5889;51.350;6.708;2024-01-30T07:41:56;8.50;99.90
11666;DHT22;5889;51.350;6.708;2024-01-30T07:44:23;8.50;99.90
11666;DHT22;5889;51.350;6.708;2024-01-30T07:46:50;8.60;99.90
11666;DHT22;5889;51.350;6.708;2024-01-30T07:49:18;8.60;99.90
11666;DHT22;5889;51.350;6.708;2024-01-30T07:51:45;8.60;99.90
11666;DHT22;5889;51.350;6.708;2024-01-30T07:54:12;8.60;99.90
11666;DHT22;5889;51.350;6.708;2024-01-30T07:56:39;8.60;99.90
11666;DHT22;5889;51.350;6.708;2024-01-30T07:59:09;8.60;99.90
11666;DHT22;5889;51.350;6.708;2024-01-30T08:01:36;8.70;99.90
11666;DHT22;5889;51.350;6.708;2024-01-30T08:04:04;8.70;99.90
11666;DHT22;5889;51.350;6.708;2024-01-30T08:06:33;8.70;99.90
11666;DHT22;5889;51.350;6.708;2024-01-30T08:09:00;8.70;99.90
11666;DHT22;5889;51.350;6.708;2024-01-30T08:11:26;8.70;99.90
11666;DHT22;5889;51.350;6.708;2024-01-30T08:13:55;8.70;99.90
11666;DHT22;5889;51.350;6.708;2024-01-30T08:16:22;8.80;99.90
11666;DHT22;5889;51.350;6.708;2024-01-30T08:18:49;8.80;99.90
11666;DHT22;5889;51.350;6.708;2024-01-30T08:21:15;8.80;99.90
11666;DHT22;5889;51.350;6.708;2024-01-30T08:23:44;8.90;99.90
11666;DHT22;5889;51.350;6.708;2024-01-30T08:26:11;8.90;99.90
11666;DHT22;5889;51.350;6.708;2024-01-30T08:28:37;9.00;99.90
11666;DHT22;5889;51.350;6.708;2024-01-30T08:31:04;9.00;99.90
11666;DHT22;5889;51.350;6.708;2024-01-30T08:33:31;9.10;99.90
11666;DHT22;5889;51.350;6.708;2024-01-30T08:35:58;9.10;99.90
11666;DHT22;5889;51.350;6.708;2024-01-30T08:38:25;9.10;99.90
11666;DHT22;5889;51.350;6.708;2024-01-30T08:40:55;9.10;99.90
11666;DHT22;5889;51.350;6.708;2024-01-30T08:43:22;9.20;99.90
11666;DHT22;5889;51.350;6.708;2024-01-30T08:45:48;9.20;99.90
11666;DHT22;5889;51.350;6.708;2024-01-30T08:48:15;9.20;99.90
11666;DHT22;5889;51.350;6.708;2024-01-30T08:50:43;9.20;99.90
11666;DHT22;5889;51.350;6.708;2024-01-30T08:53:10;9.30;99.90
11666;DHT22;5889;51.350;6.708;2024-01-30T08:55:37;9.30;99.90
11666;DHT22;5889;51.350;6.708;2024-01-30T08:58:06;9.40;99.90
11666;DHT22;5889;51.350;6.708;2024-01-30T09:00:33;9.30;99.90
11666;DHT22;5889;51.350;6.708;2024-01-30T09:03:00;9.40;99.90
11666;DHT22;5889;51.350;6.708;2024-01-30T09:05:27;9.40;99.90
11666;DHT22;5889;51.350;6.708;2024-01-30T09:07:54;9.40;99.90
11666;DHT22;5889;51.350;6.708;2024-01-30T09:10:21;9.40;99.90
11666;DHT22;5889;51.350;6.708;2024-01-30T09:12:48;9.40;99.90
11666;DHT22;5889;51.350;6.708;2024-01-30T09:15:16;9.40;99.90
11666;DHT22;5889;51.350;6.708;2024-01-30T09:17:44;9.50;99.90
11666;DHT22;5889;51.350;6.708;2024-01-30T09:20:11;9.50;99.90
11666;DHT22;5889;51.350;6.708;2024-01-30T09:22:38;9.50;99.90
11666;DHT22;5889;51.350;6.708;2024-01-30T09:25:05;9.60;99.90
11666;DHT22;5889;51.350;6.708;2024-01-30T09:27:32;9.70;99.90
11666;DHT22;5889;51.350;6.708;2024-01-30T09:29:59;9.80;99.90
11666;DHT22;5889;51.350;6.708;2024-01-30T09:32:27;9.80;99.90
11666;DHT22;5889;51.350;6.708;2024-01-30T09:34:54;9.90;99.90
11666;DHT22;5889;51.350;6.708;2024-01-30T09:37:21;9.90;99.90
11666;DHT22;5889;51.350;6.708;2024-01-30T09:39:48;9.90;99.90
11666;DHT22;5889;51.350;6.708;2024-01-30T09:42:21;10.00;99.90
11666;DHT22;5889;51.350;6.708;2024-01-30T09:44:51;10.00;99.90
11666;DHT22;5889;51.350;6.708;2024-01-30T09:47:18;10.10;99.90
11666;DHT22;5889;51.350;6.708;2024-01-30T09:49:46;10.10;99.90
11666;DHT22;5889;51.350;6.708;2024-01-30T09:52:14;10.20;99.90
11666;DHT22;5889;51.350;6.708;2024-01-30T09:54:42;10.20;99.90
11666;DHT22;5889;51.350;6.708;2024-01-30T09:57:11;10.20;99.90
11666;DHT22;5889;51.350;6.708;2024-01-30T09:59:38;10.30;99.90
11666;DHT22;5889;51.350;6.708;2024-01-30T10:02:05;10.30;99.90
11666;DHT22;5889;51.350;6.708;2024-01-30T10:04:32;10.40;99.90
11666;DHT22;5889;51.350;6.708;2024-01-30T10:07:01;10.40;99.90
11666;DHT22;5889;51.350;6.708;2024-01-30T10:09:32;10.50;99.90
11666;DHT22;5889;51.350;6.708;2024-01-30T10:11:59;10.50;99.90
11666;DHT22;5889;51.350;6.708;2024-01-30T10:14:26;10.60;99.90
11666;DHT22;5889;51.350;6.708;2024-01-30T10:16:53;10.60;99.90
11666;DHT22;5889;51.350;6.708;2024-01-30T10:19:20;10.70;99.90
11666;DHT22;5889;51.350;6.708;2024-01-30T10:21:47;10.70;99.90
11666;DHT22;5889;51.350;6.708;2024-01-30T10:24:15;10.70;99.90
11666;DHT22;5889;51.350;6.708;2024-01-30T10:26:43;10.70;99.90
11666;DHT22;5889;51.350;6.708;2024-01-30T10:29:10;10.80;99.90
11666;DHT22;5889;51.350;6.708;2024-01-30T10:31:37;10.80;99.90
11666;DHT22;5889;51.350;6.708;2024-01-30T10:34:04;10.80;99.90
11666;DHT22;5889;51.350;6.708;2024-01-30T10:36:39;10.90;99.90
11666;DHT22;5889;51.350;6.708;2024-01-30T10:39:06;11.00;99.90
11666;DHT22;5889;51.350;6.708;2024-01-30T10:41:40;11.10;99.90
11666;DHT22;5889;51.350;6.708;2024-01-30T10:44:10;11.20;99.90
11666;DHT22;5889;51.350;6.708;2024-01-30T10:46:38;11.30;99.90
11666;DHT22;5889;51.350;6.708;2024-01-30T10:49:05;11.30;99.90
11666;DHT22;5889;51.350;6.708;2024-01-30T10:51:32;11.30;99.90
11666;DHT22;5889;51.350;6.708;2024-01-30T10:54:01;11.30;99.90
11666;DHT22;5889;51.350;6.708;2024-01-30T10:56:29;11.30;99.90
11666;DHT22;5889;51.350;6.708;2024-01-30T10:59:00;11.30;99.90
11666;DHT22;5889;51.350;6.708;2024-01-30T11:01:27;11.30;99.90
11666;DHT22;5889;51.350;6.708;2024-01-30T11:03:55;11.30;99.90
11666;DHT22;5889;51.350;6.708;2024-01-30T11:06:23;11.30;99.90
11666;DHT22;5889;51.350;6.708;2024-01-30T11:09:00;11.30;99.90
11666;DHT22;5889;51.350;6.708;2024-01-30T11:11:29;11.40;99.90
11666;DHT22;5889;51.350;6.708;2024-01-30T11:14:00;11.40;99.90
11666;DHT22;5889;51.350;6.708;2024-01-30T11:16:32;11.40;99.90
11666;DHT22;5889;51.350;6.708;2024-01-30T11:19:00;11.40;99.90
11666;DHT22;5889;51.350;6.708;2024-01-30T11:21:27;11.40;99.90
11666;DHT22;5889;51.350;6.708;2024-01-30T11:23:55;11.50;99.90
11666;DHT22;5889;51.350;6.708;2024-01-30T11:26:27;11.50;99.90
11666;DHT22;5889;51.350;6.708;2024-01-30T11:28:55;11.50;99.90
11666;DHT22;5889;51.350;6.708;2024-01-30T11:31:25;11.40;99.90
11666;DHT22;5889;51.350;6.708;2024-01-30T11:33:54;11.30;99.90
11666;DHT22;5889;51.350;6.708;2024-01-30T11:36:25;11.30;99.90
11666;DHT22;5889;51.350;6.708;2024-01-30T11:38:53;11.30;99.90
11666;DHT22;5889;51.350;6.708;2024-01-30T11:41:20;11.30;99.90
11666;DHT22;5889;51.350;6.708;2024-01-30T11:43:52;11.30;99.90
11666;DHT22;5889;51.350;6.708;2024-01-30T11:46:20;11.30;99.90
11666;DHT22;5889;51.350;6.708;2024-01-30T11:48:47;11.30;99.90
11666;DHT22;5889;51.350;6.708;2024-01-30T11:51:16;11.30;99.90
11666;DHT22;5889;51.350;6.708;2024-01-30T11:53:44;11.40;99.90
11666;DHT22;5889;51.350;6.708;2024-01-30T11:56:16;11.40;99.90
11666;DHT22;5889;51.350;6.708;2024-01-30T11:58:43;11.40;99.90
11666;DHT22;5889;51.350;6.708;2024-01-30T12:01:10;11.50;99.90
11666;DHT22;5889;51.350;6.708;2024-01-30T12:03:37;11.60;99.90
11666;DHT22;5889;51.350;6.708;2024-01-30T12:06:05;11.60;99.90
11666;DHT22;5889;51.350;6.708;2024-01-30T12:08:33;11.70;99.90
11666;DHT22;5889;51.350;6.708;2024-01-30T12:11:00;11.70;99.90
11666;DHT22;5889;51.350;6.708;2024-01-30T12:13:30;11.70;99.90
11666;DHT22;5889;51.350;6.708;2024-01-30T12:15:57;11.80;99.90
11666;DHT22;5889;51.350;6.708;2024-01-30T12:18:24;11.80;99.90
11666;DHT22;5889;51.350;6.708;2024-01-30T12:20:58;11.80;99.90
11666;DHT22;5889;51.350;6.708;2024-01-30T12:23:28;11.70;99.90
11666;DHT22;5889;51.350;6.708;2024-01-30T12:25:57;11.80;99.90
11666;DHT22;5889;51.350;6.708;2024-01-30T12:28:24;11.80;99.90
11666;DHT22;5889;51.350;6.708;2024-01-30T12:30:55;11.70;99.90
11666;DHT22;5889;51.350;6.708;2024-01-30T12:33:26;11.80;99.90
11666;DHT22;5889;51.350;6.708;2024-01-30T12:35:54;11.80;99.90
11666;DHT22;5889;51.350;6.708;2024-01-30T12:38:21;11.80;99.90
11666;DHT22;5889;51.350;6.708;2024-01-30T12:40:49;11.80;99.90
11666;DHT22;5889;51.350;6.708;2024-01-30T12:43:17;11.90;99.90
11666;DHT22;5889;51.350;6.708;2024-01-30T12:45:44;11.90;99.90
11666;DHT22;5889;51.350;6.708;2024-01-30T12:48:11;11.90;99.90
11666;DHT22;5889;51.350;6.708;2024-01-30T12:50:38;11.90;99.90
11666;DHT22;5889;51.350;6.708;2024-01-30T12:53:05;11.90;99.90
11666;DHT22;5889;51.350;6.708;2024-01-30T12:55:32;11.90;99.90
11666;DHT22;5889;51.350;6.708;2024-01-30T12:57:59;11.90;99.90
11666;DHT22;5889;51.350;6.708;2024-01-30T13:00:27;11.90;99.90
11666;DHT22;5889;51.350;6.708;2024-01-30T13:02:54;11.90;99.90
11666;DHT22;5889;51.350;6.708;2024-01-30T13:05:21;12.00;99.90
11666;DHT22;5889;51.350;6.708;2024-01-30T13:08:15;12.00;99.90
11666;DHT22;5889;51.350;6.708;2024-01-30T13:10:42;12.00;99.90
11666;DHT22;5889;51.350;6.708;2024-01-30T13:13:09;12.00;99.90
11666;DHT22;5889;51.350;6.708;2024-01-30T13:15:38;12.10;99.90
11666;DHT22;5889;51.350;6.708;2024-01-30T13:18:05;12.10;99.90
11666;DHT22;5889;51.350;6.708;2024-01-30T13:20:32;12.10;99.90
11666;DHT22;5889;51.350;6.708;2024-01-30T13:22:59;12.20;99.90
11666;DHT22;5889;51.350;6.708;2024-01-30T13:25:26;12.20;99.90
11666;DHT22;5889;51.350;6.708;2024-01-30T13:27:53;12.20;99.90
11666;DHT22;5889;51.350;6.708;2024-01-30T13:30:20;12.20;99.90
11666;DHT22;5889;51.350;6.708;2024-01-30T13:32:48;12.20;99.90
11666;DHT22;5889;51.350;6.708;2024-01-30T13:35:15;12.30;99.90
11666;DHT22;5889;51.350;6.708;2024-01-30T13:37:43;12.20;99.90
11666;DHT22;5889;51.350;6.708;2024-01-30T13:40:10;12.30;99.90
11666;DHT22;5889;51.350;6.708;2024-01-30T13:42:38;12.30;99.90
11666;DHT22;5889;51.350;6.708;2024-01-30T13:45:06;12.30;99.90
11666;DHT22;5889;51.350;6.708;2024-01-30T13:47:35;12.30;99.90
11666;DHT22;5889;51.350;6.708;2024-01-30T13:50:04;12.30;99.90
11666;DHT22;5889;51.350;6.708;2024-01-30T13:52:31;12.30;99.90
11666;DHT22;5889;51.350;6.708;2024-01-30T13:54:58;12.30;99.90
11666;DHT22;5889;51.350;6.708;2024-01-30T13:57:24;12.30;99.90
11666;DHT22;5889;51.350;6.708;2024-01-30T13:59:51;12.40;99.90
11666;DHT22;5889;51.350;6.708;2024-01-30T14:02:18;12.50;99.90
11666;DHT22;5889;51.350;6.708;2024-01-30T14:04:46;12.50;99.90
11666;DHT22;5889;51.350;6.708;2024-01-30T14:07:14;12.50;99.90
11666;DHT22;5889;51.350;6.708;2024-01-30T14:09:41;12.50;99.90
11666;DHT22;5889;51.350;6.708;2024-01-30T14:12:08;12.50;99.90
11666;DHT22;5889;51.350;6.708;2024-01-30T14:14:35;12.50;99.90
11666;DHT22;5889;51.350;6.708;2024-01-30T14:17:03;12.50;99.90
11666;DHT22;5889;51.350;6.708;2024-01-30T14:19:32;12.50;99.90
11666;DHT22;5889;51.350;6.708;2024-01-30T14:21:59;12.50;99.90
11666;DHT22;5889;51.350;6.708;2024-01-30T14:24:28;12.50;99.90
11666;DHT22;5889;51.350;6.708;2024-01-30T14:26:55;12.50;99.90
11666;DHT22;5889;51.350;6.708;2024-01-30T14:29:22;12.50;99.90
11666;DHT22;5889;51.350;6.708;2024-01-30T14:31:48;12.50;99.90
11666;DHT22;5889;51.350;6.708;2024-01-30T14:34:15;12.50;99.90
11666;DHT22;5889;51.350;6.708;2024-01-30T14:36:43;12.50;99.90
11666;DHT22;5889;51.350;6.708;2024-01-30T14:39:10;12.50;99.90
11666;DHT22;5889;51.350;6.708;2024-01-30T14:41:39;12.50;99.90
11666;DHT22;5889;51.350;6.708;2024-01-30T14:44:06;12.50;99.90
11666;DHT22;5889;51.350;6.708;2024-01-30T14:46:33;12.30;99.90
11666;DHT22;5889;51.350;6.708;2024-01-30T14:49:01;12.30;99.90
11666;DHT22;5889;51.350;6.708;2024-01-30T14:51:31;12.20;99.90
11666;DHT22;5889;51.350;6.708;2024-01-30T14:53:58;12.20;99.90
11666;DHT22;5889;51.350;6.708;2024-01-30T14:56:26;12.20;99.90
11666;DHT22;5889;51.350;6.708;2024-01-30T14:58:54;12.20;99.90
11666;DHT22;5889;51.350;6.708;2024-01-30T15:01:27;12.10;99.90
11666;DHT22;5889;51.350;6.708;2024-01-30T15:03:54;12.10;99.90
11666;DHT22;5889;51.350;6.708;2024-01-30T15:06:21;12.10;99.90
11666;DHT22;5889;51.350;6.708;2024-01-30T15:08:49;12.00;99.90
11666;DHT22;5889;51.350;6.708;2024-01-30T15:11:18;12.00;99.90
11666;DHT22;5889;51.350;6.708;2024-01-30T15:13:45;12.00;99.90
11666;DHT22;5889;51.350;6.708;2024-01-30T15:16:14;12.00;99.90
11666;DHT22;5889;51.350;6.708;2024-01-30T15:18:41;11.90;99.90
11666;DHT22;5889;51.350;6.708;2024-01-30T15:21:08;11.80;99.90
11666;DHT22;5889;51.350;6.708;2024-01-30T15:23:35;11.60;99.90
11666;DHT22;5889;51.350;6.708;2024-01-30T15:26:02;11.50;99.90
11666;DHT22;5889;51.350;6.708;2024-01-30T15:28:36;11.50;99.90
11666;DHT22;5889;51.350;6.708;2024-01-30T15:31:03;11.40;99.90
11666;DHT22;5889;51.350;6.708;2024-01-30T15:33:32;11.40;99.90
11666;DHT22;5889;51.350;6.708;2024-01-30T15:35:59;11.30;99.90
11666;DHT22;5889;51.350;6.708;2024-01-30T15:38:26;11.30;99.90
11666;DHT22;5889;51.350;6.708;2024-01-30T15:40:54;11.20;99.90
11666;DHT22;5889;51.350;6.708;2024-01-30T15:43:21;11.20;99.90
11666;DHT22;5889;51.350;6.708;2024-01-30T15:45:49;11.10;99.90
11666;DHT22;5889;51.350;6.708;2024-01-30T15:48:17;11.20;99.90
11666;DHT22;5889;51.350;6.708;2024-01-30T15:50:45;11.10;99.90
11666;DHT22;5889;51.350;6.708;2024-01-30T15:53:12;11.10;99.90
11666;DHT22;5889;51.350;6.708;2024-01-30T15:55:39;11.10;99.90